sensor_id;sensor_type;location;lat;lon;timestamp;P1;durP1;ratioP1;P2;durP2;ratioP2
51006;SDS011;37034;47.886;-3.904;2023-04-01T00:00:28;44.00;;;6.70;;
51006;SDS011;37034;47.886;-3.904;2023-04-01T00:02:54;45.78;;;6.82;;
51006;SDS011;37034;47.886;-3.904;2023-04-01T00:05:20;49.35;;;6.63;;
51006;SDS011;37034;47.886;-3.904;2023-04-01T00:07:46;66.82;;;9.65;;
51006;SDS011;37034;47.886;-3.904;2023-04-01T00:10:12;45.90;;;6.97;;
51006;SDS011;37034;47.886;-3.904;2023-04-01T00:12:39;49.38;;;6.55;;
51006;SDS011;37034;47.886;-3.904;2023-04-01T00:15:06;50.92;;;6.60;;
51006;SDS011;37034;47.886;-3.904;2023-04-01T00:17:33;39.70;;;5.82;;
51006;SDS011;37034;47.886;-3.904;2023-04-01T00:19:59;42.78;;;7.15;;
51006;SDS011;37034;47.886;-3.904;2023-04-01T00:22:25;48.92;;;7.03;;
51006;SDS011;37034;47.886;-3.904;2023-04-01T00:24:52;37.03;;;6.20;;
51006;SDS011;37034;47.886;-3.904;2023-04-01T00:27:18;46.70;;;5.85;;
51006;SDS011;37034;47.886;-3.904;2023-04-01T00:29:45;42.58;;;6.45;;
51006;SDS011;37034;47.886;-3.904;2023-04-01T00:32:12;46.42;;;6.15;;
51006;SDS011;37034;47.886;-3.904;2023-04-01T00:34:39;52.08;;;6.60;;
51006;SDS011;37034;47.886;-3.904;2023-04-01T00:37:06;33.35;;;5.55;;
51006;SDS011;37034;47.886;-3.904;2023-04-01T00:41:59;44.08;;;5.97;;
51006;SDS011;37034;47.886;-3.904;2023-04-01T00:44:27;48.38;;;6.38;;
51006;SDS011;37034;47.886;-3.904;2023-04-01T00:46:55;43.42;;;6.22;;
51006;SDS011;37034;47.886;-3.904;2023-04-01T00:49:22;43.87;;;7.20;;
51006;SDS011;37034;47.886;-3.904;2023-04-01T00:51:53;53.10;;;8.50;;
51006;SDS011;37034;47.886;-3.904;2023-04-01T00:54:21;51.75;;;7.20;;
51006;SDS011;37034;47.886;-3.904;2023-04-01T00:56:53;56.90;;;7.28;;
51006;SDS011;37034;47.886;-3.904;2023-04-01T00:59:24;49.00;;;7.22;;
51006;SDS011;37034;47.886;-3.904;2023-04-01T01:01:55;41.45;;;5.90;;
51006;SDS011;37034;47.886;-3.904;2023-04-01T01:04:21;56.87;;;7.83;;
51006;SDS011;37034;47.886;-3.904;2023-04-01T01:38:06;39.00;;;6.45;;
51006;SDS011;37034;47.886;-3.904;2023-04-01T01:40:36;37.63;;;4.82;;
51006;SDS011;37034;47.886;-3.904;2023-04-01T01:43:06;40.97;;;5.55;;
51006;SDS011;37034;47.886;-3.904;2023-04-01T01:45:36;50.35;;;6.38;;
51006;SDS011;37034;47.886;-3.904;2023-04-01T01:48:04;41.75;;;5.10;;
51006;SDS011;37034;47.886;-3.904;2023-04-01T01:50:32;33.22;;;4.05;;
51006;SDS011;37034;47.886;-3.904;2023-04-01T01:55:32;32.38;;;5.70;;
51006;SDS011;37034;47.886;-3.904;2023-04-01T01:58:11;37.20;;;4.50;;
51006;SDS011;37034;47.886;-3.904;2023-04-01T02:00:41;34.97;;;4.93;;
51006;SDS011;37034;47.886;-3.904;2023-04-01T02:03:10;33.90;;;3.88;;
51006;SDS011;37034;47.886;-3.904;2023-04-01T02:05:38;29.77;;;3.85;;
51006;SDS011;37034;47.886;-3.904;2023-04-01T02:08:10;42.20;;;6.13;;
51006;SDS011;37034;47.886;-3.904;2023-04-01T02:10:49;36.00;;;4.30;;
51006;SDS011;37034;47.886;-3.904;2023-04-01T02:13:25;37.37;;;4.87;;
51006;SDS011;37034;47.886;-3.904;2023-04-01T02:16:00;38.13;;;5.05;;
51006;SDS011;37034;47.886;-3.904;2023-04-01T02:18:32;32.80;;;4.75;;
51006;SDS011;37034;47.886;-3.904;2023-04-01T02:21:02;41.67;;;5.80;;
51006;SDS011;37034;47.886;-3.904;2023-04-01T02:23:30;33.47;;;5.10;;
51006;SDS011;37034;47.886;-3.904;2023-04-01T02:26:01;31.92;;;5.53;;
51006;SDS011;37034;47.886;-3.904;2023-04-01T02:28:30;41.92;;;6.82;;
51006;SDS011;37034;47.886;-3.904;2023-04-01T02:30:58;46.83;;;6.82;;
51006;SDS011;37034;47.886;-3.904;2023-04-01T02:33:27;34.65;;;5.68;;
51006;SDS011;37034;47.886;-3.904;2023-04-01T02:35:53;53.95;;;6.90;;
51006;SDS011;37034;47.886;-3.904;2023-04-01T02:38:19;38.70;;;5.57;;
51006;SDS011;37034;47.886;-3.904;2023-04-01T02:40:46;43.92;;;5.80;;
51006;SDS011;37034;47.886;-3.904;2023-04-01T02:43:14;42.72;;;6.55;;
51006;SDS011;37034;47.886;-3.904;2023-04-01T02:45:41;45.75;;;6.47;;
51006;SDS011;37034;47.886;-3.904;2023-04-01T02:48:07;44.90;;;5.55;;
51006;SDS011;37034;47.886;-3.904;2023-04-01T02:50:33;54.40;;;6.22;;
51006;SDS011;37034;47.886;-3.904;2023-04-01T02:52:59;45.85;;;5.75;;
51006;SDS011;37034;47.886;-3.904;2023-04-01T02:55:25;43.08;;;6.90;;
51006;SDS011;37034;47.886;-3.904;2023-04-01T02:57:51;44.85;;;6.45;;
51006;SDS011;37034;47.886;-3.904;2023-04-01T03:00:17;42.03;;;5.50;;
51006;SDS011;37034;47.886;-3.904;2023-04-01T03:02:43;49.25;;;7.38;;
51006;SDS011;37034;47.886;-3.904;2023-04-01T03:05:09;43.47;;;6.10;;
51006;SDS011;37034;47.886;-3.904;2023-04-01T03:07:35;42.97;;;4.82;;
51006;SDS011;37034;47.886;-3.904;2023-04-01T03:10:01;36.47;;;4.78;;
51006;SDS011;37034;47.886;-3.904;2023-04-01T03:12:26;40.00;;;4.88;;
51006;SDS011;37034;47.886;-3.904;2023-04-01T03:14:52;37.90;;;5.00;;
51006;SDS011;37034;47.886;-3.904;2023-04-01T03:17:18;44.23;;;4.93;;
51006;SDS011;37034;47.886;-3.904;2023-04-01T03:19:43;32.13;;;4.73;;
51006;SDS011;37034;47.886;-3.904;2023-04-01T03:22:10;32.83;;;5.13;;
51006;SDS011;37034;47.886;-3.904;2023-04-01T03:24:36;37.63;;;4.15;;
51006;SDS011;37034;47.886;-3.904;2023-04-01T03:27:02;41.93;;;6.07;;
51006;SDS011;37034;47.886;-3.904;2023-04-01T03:29:27;40.10;;;4.47;;
51006;SDS011;37034;47.886;-3.904;2023-04-01T03:31:53;42.77;;;4.90;;
51006;SDS011;37034;47.886;-3.904;2023-04-01T03:34:19;42.20;;;5.60;;
51006;SDS011;37034;47.886;-3.904;2023-04-01T03:36:45;33.67;;;5.07;;
51006;SDS011;37034;47.886;-3.904;2023-04-01T03:39:10;28.97;;;3.50;;
51006;SDS011;37034;47.886;-3.904;2023-04-01T03:41:37;29.05;;;3.80;;
51006;SDS011;37034;47.886;-3.904;2023-04-01T03:44:03;38.78;;;5.07;;
51006;SDS011;37034;47.886;-3.904;2023-04-01T03:46:29;33.58;;;4.80;;
51006;SDS011;37034;47.886;-3.904;2023-04-01T03:48:55;35.80;;;4.80;;
51006;SDS011;37034;47.886;-3.904;2023-04-01T03:51:20;36.57;;;5.07;;
51006;SDS011;37034;47.886;-3.904;2023-04-01T03:53:46;38.13;;;4.73;;
51006;SDS011;37034;47.886;-3.904;2023-04-01T03:56:13;46.03;;;5.35;;
51006;SDS011;37034;47.886;-3.904;2023-04-01T03:58:38;32.03;;;5.17;;
51006;SDS011;37034;47.886;-3.904;2023-04-01T04:01:14;45.90;;;7.60;;
51006;SDS011;37034;47.886;-3.904;2023-04-01T04:03:41;33.63;;;5.88;;
51006;SDS011;37034;47.886;-3.904;2023-04-01T04:06:12;35.00;;;4.60;;
51006;SDS011;37034;47.886;-3.904;2023-04-01T04:08:38;31.45;;;4.45;;
51006;SDS011;37034;47.886;-3.904;2023-04-01T04:11:04;33.17;;;4.05;;
51006;SDS011;37034;47.886;-3.904;2023-04-01T04:13:30;32.20;;;5.00;;
51006;SDS011;37034;47.886;-3.904;2023-04-01T04:15:55;30.97;;;4.13;;
51006;SDS011;37034;47.886;-3.904;2023-04-01T04:18:21;21.83;;;2.47;;
51006;SDS011;37034;47.886;-3.904;2023-04-01T04:20:47;34.33;;;4.23;;
51006;SDS011;37034;47.886;-3.904;2023-04-01T04:23:15;22.33;;;3.47;;
51006;SDS011;37034;47.886;-3.904;2023-04-01T04:25:41;29.80;;;3.63;;
51006;SDS011;37034;47.886;-3.904;2023-04-01T04:28:06;27.50;;;3.63;;
51006;SDS011;37034;47.886;-3.904;2023-04-01T04:30:32;31.27;;;3.20;;
51006;SDS011;37034;47.886;-3.904;2023-04-01T04:32:58;22.93;;;2.80;;
51006;SDS011;37034;47.886;-3.904;2023-04-01T04:35:23;23.47;;;3.23;;
51006;SDS011;37034;47.886;-3.904;2023-04-01T04:37:49;31.47;;;4.13;;
51006;SDS011;37034;47.886;-3.904;2023-04-01T04:40:15;26.33;;;3.93;;
51006;SDS011;37034;47.886;-3.904;2023-04-01T04:42:40;25.63;;;3.00;;
51006;SDS011;37034;47.886;-3.904;2023-04-01T04:45:06;20.87;;;2.43;;
51006;SDS011;37034;47.886;-3.904;2023-04-01T04:47:32;26.08;;;3.38;;
51006;SDS011;37034;47.886;-3.904;2023-04-01T04:49:57;22.70;;;3.47;;
51006;SDS011;37034;47.886;-3.904;2023-04-01T04:52:23;29.63;;;3.50;;
51006;SDS011;37034;47.886;-3.904;2023-04-01T04:54:49;30.93;;;3.77;;
51006;SDS011;37034;47.886;-3.904;2023-04-01T04:57:14;33.67;;;4.47;;
51006;SDS011;37034;47.886;-3.904;2023-04-01T04:59:40;33.70;;;3.80;;
51006;SDS011;37034;47.886;-3.904;2023-04-01T05:02:06;25.30;;;3.47;;
51006;SDS011;37034;47.886;-3.904;2023-04-01T05:04:35;34.90;;;4.00;;
51006;SDS011;37034;47.886;-3.904;2023-04-01T05:07:01;30.85;;;4.50;;
51006;SDS011;37034;47.886;-3.904;2023-04-01T05:09:27;34.92;;;4.20;;
51006;SDS011;37034;47.886;-3.904;2023-04-01T05:11:53;35.30;;;4.00;;
51006;SDS011;37034;47.886;-3.904;2023-04-01T05:14:18;25.13;;;5.17;;
51006;SDS011;37034;47.886;-3.904;2023-04-01T05:16:44;35.30;;;4.47;;
51006;SDS011;37034;47.886;-3.904;2023-04-01T05:19:10;29.10;;;4.00;;
51006;SDS011;37034;47.886;-3.904;2023-04-01T05:21:35;33.30;;;4.77;;
51006;SDS011;37034;47.886;-3.904;2023-04-01T05:24:01;32.20;;;4.40;;
51006;SDS011;37034;47.886;-3.904;2023-04-01T05:26:27;30.63;;;4.68;;
51006;SDS011;37034;47.886;-3.904;2023-04-01T05:28:52;28.83;;;3.93;;
51006;SDS011;37034;47.886;-3.904;2023-04-01T05:31:18;16.77;;;2.87;;
51006;SDS011;37034;47.886;-3.904;2023-04-01T05:33:44;31.90;;;4.57;;
51006;SDS011;37034;47.886;-3.904;2023-04-01T05:36:10;34.50;;;5.57;;
51006;SDS011;37034;47.886;-3.904;2023-04-01T05:38:38;28.95;;;3.60;;
51006;SDS011;37034;47.886;-3.904;2023-04-01T05:41:04;21.63;;;3.22;;
51006;SDS011;37034;47.886;-3.904;2023-04-01T05:43:30;35.70;;;5.05;;
51006;SDS011;37034;47.886;-3.904;2023-04-01T05:45:56;23.40;;;3.20;;
51006;SDS011;37034;47.886;-3.904;2023-04-01T05:50:48;37.42;;;5.00;;
51006;SDS011;37034;47.886;-3.904;2023-04-01T05:53:13;39.70;;;4.63;;
51006;SDS011;37034;47.886;-3.904;2023-04-01T05:55:39;31.47;;;4.03;;
51006;SDS011;37034;47.886;-3.904;2023-04-01T05:58:05;33.93;;;5.17;;
51006;SDS011;37034;47.886;-3.904;2023-04-01T06:00:30;34.37;;;4.27;;
51006;SDS011;37034;47.886;-3.904;2023-04-01T06:02:58;37.63;;;6.23;;
51006;SDS011;37034;47.886;-3.904;2023-04-01T06:05:26;33.40;;;4.43;;
51006;SDS011;37034;47.886;-3.904;2023-04-01T06:08:01;29.63;;;3.88;;
51006;SDS011;37034;47.886;-3.904;2023-04-01T06:11:16;34.92;;;4.75;;
51006;SDS011;37034;47.886;-3.904;2023-04-01T06:27:00;25.35;;;3.88;;
51006;SDS011;37034;47.886;-3.904;2023-04-01T06:37:46;30.30;;;3.90;;
51006;SDS011;37034;47.886;-3.904;2023-04-01T06:46:02;32.13;;;4.22;;
51006;SDS011;37034;47.886;-3.904;2023-04-01T06:48:54;25.05;;;3.47;;
51006;SDS011;37034;47.886;-3.904;2023-04-01T06:51:39;33.45;;;5.38;;
51006;SDS011;37034;47.886;-3.904;2023-04-01T06:54:49;25.58;;;3.85;;
51006;SDS011;37034;47.886;-3.904;2023-04-01T06:57:02;34.03;;;4.20;;
51006;SDS011;37034;47.886;-3.904;2023-04-01T06:59:44;36.97;;;3.80;;
51006;SDS011;37034;47.886;-3.904;2023-04-01T07:04:36;32.27;;;3.90;;
51006;SDS011;37034;47.886;-3.904;2023-04-01T07:09:52;25.30;;;3.80;;
51006;SDS011;37034;47.886;-3.904;2023-04-01T07:12:33;33.70;;;4.05;;
51006;SDS011;37034;47.886;-3.904;2023-04-01T07:17:42;24.85;;;3.10;;
51006;SDS011;37034;47.886;-3.904;2023-04-01T07:20:13;33.15;;;4.10;;
51006;SDS011;37034;47.886;-3.904;2023-04-01T07:22:52;19.83;;;3.10;;
51006;SDS011;37034;47.886;-3.904;2023-04-01T07:25:29;19.20;;;2.47;;
51006;SDS011;37034;47.886;-3.904;2023-04-01T07:28:04;16.65;;;2.22;;
51006;SDS011;37034;47.886;-3.904;2023-04-01T07:30:42;15.27;;;2.00;;
51006;SDS011;37034;47.886;-3.904;2023-04-01T07:33:20;14.90;;;1.95;;
51006;SDS011;37034;47.886;-3.904;2023-04-01T07:36:06;14.43;;;2.33;;
51006;SDS011;37034;47.886;-3.904;2023-04-01T07:41:21;17.10;;;2.20;;
51006;SDS011;37034;47.886;-3.904;2023-04-01T07:50:25;10.88;;;1.83;;
51006;SDS011;37034;47.886;-3.904;2023-04-01T07:55:59;33.47;;;3.63;;
51006;SDS011;37034;47.886;-3.904;2023-04-01T08:03:55;29.00;;;3.15;;
51006;SDS011;37034;47.886;-3.904;2023-04-01T08:06:59;27.77;;;3.45;;
51006;SDS011;37034;47.886;-3.904;2023-04-01T08:09:47;25.15;;;2.90;;
51006;SDS011;37034;47.886;-3.904;2023-04-01T08:12:28;23.63;;;3.03;;
51006;SDS011;37034;47.886;-3.904;2023-04-01T08:15:11;24.63;;;2.85;;
51006;SDS011;37034;47.886;-3.904;2023-04-01T08:22:55;23.73;;;3.55;;
51006;SDS011;37034;47.886;-3.904;2023-04-01T08:25:27;19.48;;;2.50;;
51006;SDS011;37034;47.886;-3.904;2023-04-01T08:27:57;22.55;;;3.15;;
51006;SDS011;37034;47.886;-3.904;2023-04-01T08:30:50;24.33;;;3.08;;
51006;SDS011;37034;47.886;-3.904;2023-04-01T08:33:29;24.80;;;3.05;;
51006;SDS011;37034;47.886;-3.904;2023-04-01T08:35:59;24.45;;;3.35;;
51006;SDS011;37034;47.886;-3.904;2023-04-01T08:38:29;24.40;;;3.33;;
51006;SDS011;37034;47.886;-3.904;2023-04-01T08:41:10;21.67;;;2.97;;
51006;SDS011;37034;47.886;-3.904;2023-04-01T08:44:04;24.08;;;2.88;;
51006;SDS011;37034;47.886;-3.904;2023-04-01T08:46:47;24.35;;;2.92;;
51006;SDS011;37034;47.886;-3.904;2023-04-01T08:52:34;29.23;;;4.53;;
51006;SDS011;37034;47.886;-3.904;2023-04-01T09:23:07;27.35;;;3.90;;
51006;SDS011;37034;47.886;-3.904;2023-04-01T09:30:19;28.73;;;3.30;;
51006;SDS011;37034;47.886;-3.904;2023-04-01T09:36:03;23.67;;;2.90;;
51006;SDS011;37034;47.886;-3.904;2023-04-01T09:38:56;23.60;;;2.97;;
51006;SDS011;37034;47.886;-3.904;2023-04-01T09:41:36;21.50;;;2.78;;
51006;SDS011;37034;47.886;-3.904;2023-04-01T09:55:46;19.92;;;2.50;;
51006;SDS011;37034;47.886;-3.904;2023-04-01T10:28:28;23.67;;;2.90;;
51006;SDS011;37034;47.886;-3.904;2023-04-01T10:31:35;21.65;;;2.97;;
51006;SDS011;37034;47.886;-3.904;2023-04-01T10:34:29;17.77;;;3.13;;
51006;SDS011;37034;47.886;-3.904;2023-04-01T11:12:35;32.78;;;4.88;;
51006;SDS011;37034;47.886;-3.904;2023-04-01T11:21:12;20.90;;;3.70;;
51006;SDS011;37034;47.886;-3.904;2023-04-01T11:23:58;28.55;;;4.43;;
51006;SDS011;37034;47.886;-3.904;2023-04-01T11:35:15;26.80;;;4.07;;
51006;SDS011;37034;47.886;-3.904;2023-04-01T11:45:39;27.10;;;3.63;;
51006;SDS011;37034;47.886;-3.904;2023-04-01T11:51:05;21.38;;;2.67;;
51006;SDS011;37034;47.886;-3.904;2023-04-01T11:56:39;19.15;;;2.85;;
51006;SDS011;37034;47.886;-3.904;2023-04-01T12:19:13;21.48;;;2.80;;
51006;SDS011;37034;47.886;-3.904;2023-04-01T12:24:39;19.83;;;2.60;;
51006;SDS011;37034;47.886;-3.904;2023-04-01T12:30:28;23.00;;;3.25;;
51006;SDS011;37034;47.886;-3.904;2023-04-01T12:33:13;23.58;;;3.55;;
51006;SDS011;37034;47.886;-3.904;2023-04-01T12:36:53;24.00;;;3.13;;
51006;SDS011;37034;47.886;-3.904;2023-04-01T12:39:08;23.92;;;3.08;;
51006;SDS011;37034;47.886;-3.904;2023-04-01T12:45:35;24.17;;;3.88;;
51006;SDS011;37034;47.886;-3.904;2023-04-01T13:00:11;19.35;;;3.05;;
51006;SDS011;37034;47.886;-3.904;2023-04-01T13:06:05;16.05;;;2.75;;
51006;SDS011;37034;47.886;-3.904;2023-04-01T13:08:52;10.60;;;1.73;;
51006;SDS011;37034;47.886;-3.904;2023-04-01T13:23:26;10.57;;;2.17;;
51006;SDS011;37034;47.886;-3.904;2023-04-01T13:26:35;11.07;;;1.85;;
51006;SDS011;37034;47.886;-3.904;2023-04-01T13:29:33;15.73;;;1.80;;
51006;SDS011;37034;47.886;-3.904;2023-04-01T13:32:30;18.63;;;2.58;;
51006;SDS011;37034;47.886;-3.904;2023-04-01T13:44:41;15.68;;;2.85;;
51006;SDS011;37034;47.886;-3.904;2023-04-01T13:47:24;14.23;;;2.42;;
51006;SDS011;37034;47.886;-3.904;2023-04-01T14:01:47;11.88;;;2.13;;
51006;SDS011;37034;47.886;-3.904;2023-04-01T14:06:58;13.63;;;2.00;;
51006;SDS011;37034;47.886;-3.904;2023-04-01T14:37:23;10.68;;;1.58;;
51006;SDS011;37034;47.886;-3.904;2023-04-01T14:50:05;12.63;;;1.98;;
51006;SDS011;37034;47.886;-3.904;2023-04-01T14:52:42;13.02;;;2.05;;
51006;SDS011;37034;47.886;-3.904;2023-04-01T14:58:41;9.70;;;1.50;;
51006;SDS011;37034;47.886;-3.904;2023-04-01T15:12:45;16.58;;;2.15;;
51006;SDS011;37034;47.886;-3.904;2023-04-01T15:20:47;13.98;;;2.50;;
51006;SDS011;37034;47.886;-3.904;2023-04-01T15:23:19;10.75;;;2.35;;
51006;SDS011;37034;47.886;-3.904;2023-04-01T15:28:52;11.50;;;2.05;;
51006;SDS011;37034;47.886;-3.904;2023-04-01T15:31:46;10.52;;;1.77;;
51006;SDS011;37034;47.886;-3.904;2023-04-01T15:34:24;11.57;;;2.03;;
51006;SDS011;37034;47.886;-3.904;2023-04-01T15:43:11;15.68;;;2.45;;
51006;SDS011;37034;47.886;-3.904;2023-04-01T15:48:50;19.00;;;4.32;;
51006;SDS011;37034;47.886;-3.904;2023-04-01T15:51:22;21.63;;;5.60;;
51006;SDS011;37034;47.886;-3.904;2023-04-01T15:54:15;13.70;;;2.63;;
51006;SDS011;37034;47.886;-3.904;2023-04-01T16:09:39;9.90;;;2.53;;
51006;SDS011;37034;47.886;-3.904;2023-04-01T16:15:08;12.32;;;2.17;;
51006;SDS011;37034;47.886;-3.904;2023-04-01T16:20:43;12.82;;;2.33;;
51006;SDS011;37034;47.886;-3.904;2023-04-01T16:26:06;13.73;;;3.65;;
51006;SDS011;37034;47.886;-3.904;2023-04-01T16:37:45;15.27;;;1.80;;
51006;SDS011;37034;47.886;-3.904;2023-04-01T16:43:44;12.43;;;1.92;;
51006;SDS011;37034;47.886;-3.904;2023-04-01T17:19:11;13.95;;;4.18;;
51006;SDS011;37034;47.886;-3.904;2023-04-01T17:30:38;15.35;;;1.70;;
51006;SDS011;37034;47.886;-3.904;2023-04-01T17:33:29;8.88;;;1.40;;
51006;SDS011;37034;47.886;-3.904;2023-04-01T17:36:21;17.60;;;2.10;;
51006;SDS011;37034;47.886;-3.904;2023-04-01T17:42:04;14.40;;;2.33;;
51006;SDS011;37034;47.886;-3.904;2023-04-01T18:05:30;12.05;;;2.03;;
51006;SDS011;37034;47.886;-3.904;2023-04-01T18:13:54;8.27;;;1.90;;
51006;SDS011;37034;47.886;-3.904;2023-04-01T18:16:36;9.40;;;2.00;;
51006;SDS011;37034;47.886;-3.904;2023-04-01T18:19:09;10.23;;;1.70;;
51006;SDS011;37034;47.886;-3.904;2023-04-01T18:21:52;7.53;;;1.27;;
51006;SDS011;37034;47.886;-3.904;2023-04-01T18:24:28;8.02;;;1.33;;
51006;SDS011;37034;47.886;-3.904;2023-04-01T18:29:35;7.70;;;1.08;;
51006;SDS011;37034;47.886;-3.904;2023-04-01T18:32:36;5.38;;;0.90;;
51006;SDS011;37034;47.886;-3.904;2023-04-01T18:38:15;10.40;;;1.67;;
51006;SDS011;37034;47.886;-3.904;2023-04-01T18:49:07;10.07;;;2.13;;
51006;SDS011;37034;47.886;-3.904;2023-04-01T18:54:31;9.50;;;1.10;;
51006;SDS011;37034;47.886;-3.904;2023-04-01T18:57:10;8.73;;;1.60;;
51006;SDS011;37034;47.886;-3.904;2023-04-01T18:59:40;13.15;;;1.77;;
51006;SDS011;37034;47.886;-3.904;2023-04-01T19:05:19;10.77;;;1.50;;
51006;SDS011;37034;47.886;-3.904;2023-04-01T19:07:56;12.10;;;1.83;;
51006;SDS011;37034;47.886;-3.904;2023-04-01T19:10:56;8.48;;;1.30;;
51006;SDS011;37034;47.886;-3.904;2023-04-01T19:21:40;7.68;;;1.70;;
51006;SDS011;37034;47.886;-3.904;2023-04-01T19:43:47;9.88;;;1.30;;
51006;SDS011;37034;47.886;-3.904;2023-04-01T19:46:01;11.23;;;1.92;;
51006;SDS011;37034;47.886;-3.904;2023-04-01T19:48:54;10.15;;;1.20;;
51006;SDS011;37034;47.886;-3.904;2023-04-01T19:51:34;10.35;;;1.52;;
51006;SDS011;37034;47.886;-3.904;2023-04-01T20:04:37;8.53;;;1.40;;
51006;SDS011;37034;47.886;-3.904;2023-04-01T20:12:46;9.82;;;2.38;;
51006;SDS011;37034;47.886;-3.904;2023-04-01T20:15:32;15.70;;;3.78;;
51006;SDS011;37034;47.886;-3.904;2023-04-01T20:18:16;15.05;;;2.65;;
51006;SDS011;37034;47.886;-3.904;2023-04-01T20:21:03;10.80;;;1.98;;
51006;SDS011;37034;47.886;-3.904;2023-04-01T20:23:45;14.35;;;3.00;;
51006;SDS011;37034;47.886;-3.904;2023-04-01T20:26:34;11.52;;;1.50;;
51006;SDS011;37034;47.886;-3.904;2023-04-01T20:31:57;13.10;;;1.90;;
51006;SDS011;37034;47.886;-3.904;2023-04-01T20:37:41;13.43;;;2.35;;
51006;SDS011;37034;47.886;-3.904;2023-04-01T20:45:34;16.30;;;2.65;;
51006;SDS011;37034;47.886;-3.904;2023-04-01T20:51:15;9.98;;;1.40;;
51006;SDS011;37034;47.886;-3.904;2023-04-01T20:53:53;12.18;;;1.80;;
51006;SDS011;37034;47.886;-3.904;2023-04-01T21:12:00;23.25;;;3.38;;
51006;SDS011;37034;47.886;-3.904;2023-04-01T21:30:41;18.23;;;3.00;;
51006;SDS011;37034;47.886;-3.904;2023-04-01T21:36:17;17.75;;;2.42;;
51006;SDS011;37034;47.886;-3.904;2023-04-01T21:44:40;13.57;;;2.15;;
51006;SDS011;37034;47.886;-3.904;2023-04-01T21:47:23;11.93;;;1.83;;
51006;SDS011;37034;47.886;-3.904;2023-04-01T21:50:54;18.08;;;2.05;;
51006;SDS011;37034;47.886;-3.904;2023-04-01T22:01:40;14.95;;;2.42;;
51006;SDS011;37034;47.886;-3.904;2023-04-01T22:07:28;15.40;;;2.03;;
51006;SDS011;37034;47.886;-3.904;2023-04-01T22:15:22;19.85;;;2.40;;
51006;SDS011;37034;47.886;-3.904;2023-04-01T22:17:59;14.43;;;1.70;;
51006;SDS011;37034;47.886;-3.904;2023-04-01T22:31:49;14.45;;;1.95;;
51006;SDS011;37034;47.886;-3.904;2023-04-01T22:36:56;14.82;;;2.17;;
51006;SDS011;37034;47.886;-3.904;2023-04-01T22:45:18;16.65;;;2.13;;
51006;SDS011;37034;47.886;-3.904;2023-04-01T22:56:37;11.73;;;1.70;;
51006;SDS011;37034;47.886;-3.904;2023-04-01T23:02:20;14.27;;;3.95;;
51006;SDS011;37034;47.886;-3.904;2023-04-01T23:04:56;16.58;;;3.20;;
51006;SDS011;37034;47.886;-3.904;2023-04-01T23:12:58;23.90;;;3.72;;
51006;SDS011;37034;47.886;-3.904;2023-04-01T23:15:27;25.25;;;3.90;;
51006;SDS011;37034;47.886;-3.904;2023-04-01T23:20:28;21.80;;;4.85;;
51006;SDS011;37034;47.886;-3.904;2023-04-01T23:28:54;19.60;;;3.03;;
51006;SDS011;37034;47.886;-3.904;2023-04-01T23:33:55;17.80;;;3.47;;
51006;SDS011;37034;47.886;-3.904;2023-04-01T23:36:23;15.77;;;2.60;;
51006;SDS011;37034;47.886;-3.904;2023-04-01T23:41:44;21.02;;;3.17;;
51006;SDS011;37034;47.886;-3.904;2023-04-01T23:44:17;20.08;;;3.00;;
51006;SDS011;37034;47.886;-3.904;2023-04-01T23:46:45;20.58;;;2.95;;
51006;SDS011;37034;47.886;-3.904;2023-04-01T23:49:13;18.15;;;2.85;;
51006;SDS011;37034;47.886;-3.904;2023-04-01T23:51:50;19.88;;;2.78;;
51006;SDS011;37034;47.886;-3.904;2023-04-01T23:56:57;13.60;;;2.25;;
51006;SDS011;37034;47.886;-3.904;2023-04-01T23:59:27;11.20;;;1.95;;
